sensor_id;sensor_type;location;lat;lon;timestamp;temperature;humidity
68746;SHT31;66104;45.456;11.064;2023-04-19T06:26:43;17.17;52.15
68746;SHT31;66104;45.456;11.064;2023-04-19T06:29:20;17.28;51.91
68746;SHT31;66104;45.456;11.064;2023-04-19T06:31:57;17.40;51.79
68746;SHT31;66104;45.456;11.064;2023-04-19T06:34:35;17.56;51.39
68746;SHT31;66104;45.456;11.064;2023-04-19T06:37:11;17.71;50.85
68746;SHT31;66104;45.456;11.064;2023-04-19T06:39:47;17.84;49.82
68746;SHT31;66104;45.456;11.064;2023-04-19T06:42:23;17.94;49.46
68746;SHT31;66104;45.456;11.064;2023-04-19T06:45:00;18.04;49.14
68746;SHT31;66104;45.456;11.064;2023-04-19T06:47:42;18.13;48.12
68746;SHT31;66104;45.456;11.064;2023-04-19T06:50:19;18.18;47.62
68746;SHT31;66104;45.456;11.064;2023-04-19T06:52:56;18.20;47.52
68746;SHT31;66104;45.456;11.064;2023-04-19T06:55:34;18.19;47.80
68746;SHT31;66104;45.456;11.064;2023-04-19T06:58:11;18.17;47.61
68746;SHT31;66104;45.456;11.064;2023-04-19T07:00:48;18.18;48.23
68746;SHT31;66104;45.456;11.064;2023-04-19T07:03:24;18.19;47.59
68746;SHT31;66104;45.456;11.064;2023-04-19T07:06:03;18.19;47.14
68746;SHT31;66104;45.456;11.064;2023-04-19T07:08:40;18.22;46.97
68746;SHT31;66104;45.456;11.064;2023-04-19T07:11:21;18.31;46.82
68746;SHT31;66104;45.456;11.064;2023-04-19T07:13:57;18.37;46.82
68746;SHT31;66104;45.456;11.064;2023-04-19T07:16:34;18.38;46.36
68746;SHT31;66104;45.456;11.064;2023-04-19T07:19:20;18.36;46.15
68746;SHT31;66104;45.456;11.064;2023-04-19T07:21:58;18.32;46.38
68746;SHT31;66104;45.456;11.064;2023-04-19T07:24:34;18.33;46.48
68746;SHT31;66104;45.456;11.064;2023-04-19T07:27:12;18.34;46.36
68746;SHT31;66104;45.456;11.064;2023-04-19T07:29:48;18.37;46.26
68746;SHT31;66104;45.456;11.064;2023-04-19T07:32:24;18.38;46.27
68746;SHT31;66104;45.456;11.064;2023-04-19T07:35:01;18.40;46.30
68746;SHT31;66104;45.456;11.064;2023-04-19T07:37:41;18.43;46.23
68746;SHT31;66104;45.456;11.064;2023-04-19T07:40:17;18.40;46.27
68746;SHT31;66104;45.456;11.064;2023-04-19T07:42:55;18.45;46.30
68746;SHT31;66104;45.456;11.064;2023-04-19T07:45:32;18.52;46.29
68746;SHT31;66104;45.456;11.064;2023-04-19T07:48:09;18.55;46.55
68746;SHT31;66104;45.456;11.064;2023-04-19T07:50:46;18.58;46.12
68746;SHT31;66104;45.456;11.064;2023-04-19T07:53:22;18.62;45.81
68746;SHT31;66104;45.456;11.064;2023-04-19T07:55:58;18.63;45.91
68746;SHT31;66104;45.456;11.064;2023-04-19T07:58:37;18.63;45.88
68746;SHT31;66104;45.456;11.064;2023-04-19T08:01:24;18.61;45.54
68746;SHT31;66104;45.456;11.064;2023-04-19T08:04:01;18.63;45.71
68746;SHT31;66104;45.456;11.064;2023-04-19T08:06:38;18.69;45.92
68746;SHT31;66104;45.456;11.064;2023-04-19T08:09:14;18.79;45.89
68746;SHT31;66104;45.456;11.064;2023-04-19T08:11:51;18.93;45.66
68746;SHT31;66104;45.456;11.064;2023-04-19T08:14:27;19.09;45.01
68746;SHT31;66104;45.456;11.064;2023-04-19T08:17:24;19.27;44.75
68746;SHT31;66104;45.456;11.064;2023-04-19T08:20:11;19.40;44.12
68746;SHT31;66104;45.456;11.064;2023-04-19T08:22:49;19.37;43.72
68746;SHT31;66104;45.456;11.064;2023-04-19T08:25:28;19.38;43.96
68746;SHT31;66104;45.456;11.064;2023-04-19T08:28:05;19.40;44.71
68746;SHT31;66104;45.456;11.064;2023-04-19T08:30:42;19.48;44.77
68746;SHT31;66104;45.456;11.064;2023-04-19T08:33:18;19.55;44.34
68746;SHT31;66104;45.456;11.064;2023-04-19T08:35:55;19.62;44.13
68746;SHT31;66104;45.456;11.064;2023-04-19T08:38:31;19.69;43.91
68746;SHT31;66104;45.456;11.064;2023-04-19T08:41:14;19.74;44.00
68746;SHT31;66104;45.456;11.064;2023-04-19T08:43:52;19.82;43.64
68746;SHT31;66104;45.456;11.064;2023-04-19T08:46:31;19.91;43.52
68746;SHT31;66104;45.456;11.064;2023-04-19T08:49:09;19.94;43.40
68746;SHT31;66104;45.456;11.064;2023-04-19T08:51:47;19.94;43.26
68746;SHT31;66104;45.456;11.064;2023-04-19T08:54:25;19.94;43.16
68746;SHT31;66104;45.456;11.064;2023-04-19T08:57:05;19.98;43.08
68746;SHT31;66104;45.456;11.064;2023-04-19T08:59:42;20.00;43.14
68746;SHT31;66104;45.456;11.064;2023-04-19T09:02:23;20.08;43.20
68746;SHT31;66104;45.456;11.064;2023-04-19T09:05:15;20.16;43.18
68746;SHT31;66104;45.456;11.064;2023-04-19T09:07:52;20.18;42.59
68746;SHT31;66104;45.456;11.064;2023-04-19T09:10:53;20.23;42.78
68746;SHT31;66104;45.456;11.064;2023-04-19T09:13:30;20.29;42.78
68746;SHT31;66104;45.456;11.064;2023-04-19T09:16:08;20.38;42.88
68746;SHT31;66104;45.456;11.064;2023-04-19T09:18:58;20.42;42.80
68746;SHT31;66104;45.456;11.064;2023-04-19T09:21:53;20.38;42.66
68746;SHT31;66104;45.456;11.064;2023-04-19T09:24:43;20.36;42.62
68746;SHT31;66104;45.456;11.064;2023-04-19T09:27:26;20.40;42.72
68746;SHT31;66104;45.456;11.064;2023-04-19T09:30:07;20.41;42.68
68746;SHT31;66104;45.456;11.064;2023-04-19T09:33:01;20.40;42.78
68746;SHT31;66104;45.456;11.064;2023-04-19T09:35:42;20.38;42.69
68746;SHT31;66104;45.456;11.064;2023-04-19T09:38:19;20.32;42.96
68746;SHT31;66104;45.456;11.064;2023-04-19T09:41:06;20.25;43.08
68746;SHT31;66104;45.456;11.064;2023-04-19T09:43:44;20.16;43.58
68746;SHT31;66104;45.456;11.064;2023-04-19T09:46:32;20.09;43.67
68746;SHT31;66104;45.456;11.064;2023-04-19T09:49:17;20.02;43.84
68746;SHT31;66104;45.456;11.064;2023-04-19T09:52:14;20.04;43.84
68746;SHT31;66104;45.456;11.064;2023-04-19T09:54:53;20.06;43.88
68746;SHT31;66104;45.456;11.064;2023-04-19T09:57:45;20.12;44.09
68746;SHT31;66104;45.456;11.064;2023-04-19T10:00:24;20.16;44.09
68746;SHT31;66104;45.456;11.064;2023-04-19T10:03:15;20.24;44.27
68746;SHT31;66104;45.456;11.064;2023-04-19T10:05:52;20.28;43.84
68746;SHT31;66104;45.456;11.064;2023-04-19T10:08:38;20.22;43.50
68746;SHT31;66104;45.456;11.064;2023-04-19T10:11:16;20.16;43.87
68746;SHT31;66104;45.456;11.064;2023-04-19T10:13:59;20.22;44.19
68746;SHT31;66104;45.456;11.064;2023-04-19T10:16:38;20.33;44.47
68746;SHT31;66104;45.456;11.064;2023-04-19T10:19:15;20.42;44.27
68746;SHT31;66104;45.456;11.064;2023-04-19T10:21:55;20.51;43.85
68746;SHT31;66104;45.456;11.064;2023-04-19T10:24:34;20.62;43.31
68746;SHT31;66104;45.456;11.064;2023-04-19T10:27:33;20.70;43.06
68746;SHT31;66104;45.456;11.064;2023-04-19T10:30:19;20.81;42.82
68746;SHT31;66104;45.456;11.064;2023-04-19T10:32:57;20.85;42.48
68746;SHT31;66104;45.456;11.064;2023-04-19T10:35:35;20.88;42.75
68746;SHT31;66104;45.456;11.064;2023-04-19T10:38:15;20.91;42.90
68746;SHT31;66104;45.456;11.064;2023-04-19T10:41:06;20.96;42.98
68746;SHT31;66104;45.456;11.064;2023-04-19T10:43:47;21.04;43.29
68746;SHT31;66104;45.456;11.064;2023-04-19T10:46:42;21.10;43.24
68746;SHT31;66104;45.456;11.064;2023-04-19T10:49:20;21.10;43.05
68746;SHT31;66104;45.456;11.064;2023-04-19T10:51:59;21.17;43.18
68746;SHT31;66104;45.456;11.064;2023-04-19T10:54:57;21.29;42.25
68746;SHT31;66104;45.456;11.064;2023-04-19T11:00:37;21.53;41.30
68746;SHT31;66104;45.456;11.064;2023-04-19T11:06:29;21.69;40.21
68746;SHT31;66104;45.456;11.064;2023-04-19T11:09:08;21.78;40.42
68746;SHT31;66104;45.456;11.064;2023-04-19T11:11:56;21.89;40.92
68746;SHT31;66104;45.456;11.064;2023-04-19T11:14:38;21.98;39.96
68746;SHT31;66104;45.456;11.064;2023-04-19T11:17:20;22.03;39.65
68746;SHT31;66104;45.456;11.064;2023-04-19T11:19:59;22.01;39.04
68746;SHT31;66104;45.456;11.064;2023-04-19T11:22:41;21.90;39.58
68746;SHT31;66104;45.456;11.064;2023-04-19T11:25:19;21.87;39.57
68746;SHT31;66104;45.456;11.064;2023-04-19T11:27:59;21.85;39.63
68746;SHT31;66104;45.456;11.064;2023-04-19T11:30:37;21.89;39.44
68746;SHT31;66104;45.456;11.064;2023-04-19T11:33:13;21.93;39.08
68746;SHT31;66104;45.456;11.064;2023-04-19T11:35:53;22.02;38.65
68746;SHT31;66104;45.456;11.064;2023-04-19T11:38:31;22.10;38.81
68746;SHT31;66104;45.456;11.064;2023-04-19T11:41:08;22.18;38.47
68746;SHT31;66104;45.456;11.064;2023-04-19T11:43:44;22.20;38.56
68746;SHT31;66104;45.456;11.064;2023-04-19T11:46:21;22.30;38.45
68746;SHT31;66104;45.456;11.064;2023-04-19T11:48:58;22.38;38.23
68746;SHT31;66104;45.456;11.064;2023-04-19T11:51:35;22.46;38.39
68746;SHT31;66104;45.456;11.064;2023-04-19T11:54:18;22.56;38.37
68746;SHT31;66104;45.456;11.064;2023-04-19T11:57:01;22.65;37.90
68746;SHT31;66104;45.456;11.064;2023-04-19T11:59:37;22.65;37.60
68746;SHT31;66104;45.456;11.064;2023-04-19T12:02:41;22.65;37.98
68746;SHT31;66104;45.456;11.064;2023-04-19T12:05:18;22.75;38.01
68746;SHT31;66104;45.456;11.064;2023-04-19T12:08:00;22.85;37.93
68746;SHT31;66104;45.456;11.064;2023-04-19T12:10:39;22.86;37.64
68746;SHT31;66104;45.456;11.064;2023-04-19T12:13:31;22.77;37.76
68746;SHT31;66104;45.456;11.064;2023-04-19T12:16:08;22.81;37.63
68746;SHT31;66104;45.456;11.064;2023-04-19T12:18:57;22.85;37.34
68746;SHT31;66104;45.456;11.064;2023-04-19T12:21:44;22.68;37.63
68746;SHT31;66104;45.456;11.064;2023-04-19T12:24:21;22.63;37.73
68746;SHT31;66104;45.456;11.064;2023-04-19T12:26:58;22.56;37.60
68746;SHT31;66104;45.456;11.064;2023-04-19T12:29:35;22.44;37.75
68746;SHT31;66104;45.456;11.064;2023-04-19T12:32:11;22.41;37.76
68746;SHT31;66104;45.456;11.064;2023-04-19T12:34:48;22.39;37.66
68746;SHT31;66104;45.456;11.064;2023-04-19T12:37:25;22.36;37.23
68746;SHT31;66104;45.456;11.064;2023-04-19T12:40:04;22.33;37.23
68746;SHT31;66104;45.456;11.064;2023-04-19T12:42:47;22.33;37.10
68746;SHT31;66104;45.456;11.064;2023-04-19T12:45:25;22.39;36.74
68746;SHT31;66104;45.456;11.064;2023-04-19T12:48:04;22.51;36.60
68746;SHT31;66104;45.456;11.064;2023-04-19T12:50:40;22.58;36.32
68746;SHT31;66104;45.456;11.064;2023-04-19T12:53:18;22.72;36.54
68746;SHT31;66104;45.456;11.064;2023-04-19T12:55:54;22.87;36.65
68746;SHT31;66104;45.456;11.064;2023-04-19T12:58:31;23.03;36.23
68746;SHT31;66104;45.456;11.064;2023-04-19T13:01:09;23.17;36.02
68746;SHT31;66104;45.456;11.064;2023-04-19T13:03:45;23.32;36.08
68746;SHT31;66104;45.456;11.064;2023-04-19T13:06:27;23.45;35.72
68746;SHT31;66104;45.456;11.064;2023-04-19T13:09:03;23.59;35.56
68746;SHT31;66104;45.456;11.064;2023-04-19T13:11:42;23.59;35.49
68746;SHT31;66104;45.456;11.064;2023-04-19T13:14:19;23.61;35.88
68746;SHT31;66104;45.456;11.064;2023-04-19T13:16:56;23.66;35.62
68746;SHT31;66104;45.456;11.064;2023-04-19T13:19:33;23.69;35.39
68746;SHT31;66104;45.456;11.064;2023-04-19T13:22:11;23.75;35.51
68746;SHT31;66104;45.456;11.064;2023-04-19T13:24:49;23.72;35.12
68746;SHT31;66104;45.456;11.064;2023-04-19T13:27:26;23.65;35.35
68746;SHT31;66104;45.456;11.064;2023-04-19T13:30:03;23.55;35.51
68746;SHT31;66104;45.456;11.064;2023-04-19T13:32:47;23.22;37.24
68746;SHT31;66104;45.456;11.064;2023-04-19T13:35:25;22.83;38.48
68746;SHT31;66104;45.456;11.064;2023-04-19T13:38:03;22.43;39.12
68746;SHT31;66104;45.456;11.064;2023-04-19T13:40:41;22.01;40.16
68746;SHT31;66104;45.456;11.064;2023-04-19T13:43:18;21.65;41.35
68746;SHT31;66104;45.456;11.064;2023-04-19T13:45:55;21.34;42.17
68746;SHT31;66104;45.456;11.064;2023-04-19T13:48:31;20.98;43.07
68746;SHT31;66104;45.456;11.064;2023-04-19T13:51:07;20.77;44.08
68746;SHT31;66104;45.456;11.064;2023-04-19T13:53:43;20.52;44.91
68746;SHT31;66104;45.456;11.064;2023-04-19T13:56:21;20.36;44.92
68746;SHT31;66104;45.456;11.064;2023-04-19T13:58:57;20.26;45.38
68746;SHT31;66104;45.456;11.064;2023-04-19T14:04:11;20.10;45.18
68746;SHT31;66104;45.456;11.064;2023-04-19T14:06:48;20.07;45.51
68746;SHT31;66104;45.456;11.064;2023-04-19T14:09:25;20.02;45.62
68746;SHT31;66104;45.456;11.064;2023-04-19T14:12:02;19.99;45.77
68746;SHT31;66104;45.456;11.064;2023-04-19T14:14:40;19.89;46.25
68746;SHT31;66104;45.456;11.064;2023-04-19T14:17:17;19.81;46.40
68746;SHT31;66104;45.456;11.064;2023-04-19T14:19:53;19.76;46.27
68746;SHT31;66104;45.456;11.064;2023-04-19T14:22:35;19.70;46.38
68746;SHT31;66104;45.456;11.064;2023-04-19T14:25:12;19.68;46.71
68746;SHT31;66104;45.456;11.064;2023-04-19T14:27:48;19.71;46.74
68746;SHT31;66104;45.456;11.064;2023-04-19T14:30:24;19.68;46.63
68746;SHT31;66104;45.456;11.064;2023-04-19T14:33:01;19.73;46.59
68746;SHT31;66104;45.456;11.064;2023-04-19T14:35:38;19.89;46.72
68746;SHT31;66104;45.456;11.064;2023-04-19T14:38:16;20.06;46.45
68746;SHT31;66104;45.456;11.064;2023-04-19T14:40:52;20.22;45.73
68746;SHT31;66104;45.456;11.064;2023-04-19T14:43:28;20.38;45.91
68746;SHT31;66104;45.456;11.064;2023-04-19T14:46:06;20.50;45.23
68746;SHT31;66104;45.456;11.064;2023-04-19T14:48:43;20.60;44.79
68746;SHT31;66104;45.456;11.064;2023-04-19T14:51:20;20.66;44.74
68746;SHT31;66104;45.456;11.064;2023-04-19T14:53:57;20.65;44.89
68746;SHT31;66104;45.456;11.064;2023-04-19T14:56:33;20.63;44.45
68746;SHT31;66104;45.456;11.064;2023-04-19T14:59:10;20.68;44.37
68746;SHT31;66104;45.456;11.064;2023-04-19T15:01:46;20.78;44.73
68746;SHT31;66104;45.456;11.064;2023-04-19T15:04:23;20.85;44.28
68746;SHT31;66104;45.456;11.064;2023-04-19T15:06:59;20.87;43.68
68746;SHT31;66104;45.456;11.064;2023-04-19T15:09:37;20.83;43.05
68746;SHT31;66104;45.456;11.064;2023-04-19T15:12:13;20.87;43.28
68746;SHT31;66104;45.456;11.064;2023-04-19T15:14:52;20.90;43.08
68746;SHT31;66104;45.456;11.064;2023-04-19T15:17:28;20.89;42.74
68746;SHT31;66104;45.456;11.064;2023-04-19T15:20:05;20.86;42.92
68746;SHT31;66104;45.456;11.064;2023-04-19T15:22:45;20.82;43.57
68746;SHT31;66104;45.456;11.064;2023-04-19T15:25:22;20.77;43.57
68746;SHT31;66104;45.456;11.064;2023-04-19T15:27:59;20.70;43.46
68746;SHT31;66104;45.456;11.064;2023-04-19T15:30:37;20.65;43.83
68746;SHT31;66104;45.456;11.064;2023-04-19T15:33:15;20.55;43.63
68746;SHT31;66104;45.456;11.064;2023-04-19T15:35:51;20.47;43.38
68746;SHT31;66104;45.456;11.064;2023-04-19T15:38:29;20.42;43.34
68746;SHT31;66104;45.456;11.064;2023-04-19T15:41:09;20.40;43.31
68746;SHT31;66104;45.456;11.064;2023-04-19T15:43:47;20.36;43.10
68746;SHT31;66104;45.456;11.064;2023-04-19T15:46:23;20.32;43.08
68746;SHT31;66104;45.456;11.064;2023-04-19T15:49:01;20.27;42.77
68746;SHT31;66104;45.456;11.064;2023-04-19T15:51:37;20.23;42.49
68746;SHT31;66104;45.456;11.064;2023-04-19T15:54:14;20.20;42.65
68746;SHT31;66104;45.456;11.064;2023-04-19T15:56:51;20.15;42.83
68746;SHT31;66104;45.456;11.064;2023-04-19T15:59:28;20.11;42.79
68746;SHT31;66104;45.456;11.064;2023-04-19T16:02:05;20.07;43.38
68746;SHT31;66104;45.456;11.064;2023-04-19T16:04:40;19.99;43.80
68746;SHT31;66104;45.456;11.064;2023-04-19T16:07:18;19.91;44.24
68746;SHT31;66104;45.456;11.064;2023-04-19T16:09:54;19.85;44.77
68746;SHT31;66104;45.456;11.064;2023-04-19T16:12:31;19.79;45.45
68746;SHT31;66104;45.456;11.064;2023-04-19T16:15:08;19.72;45.71
68746;SHT31;66104;45.456;11.064;2023-04-19T16:17:46;19.62;46.06
68746;SHT31;66104;45.456;11.064;2023-04-19T16:20:23;19.55;47.57
68746;SHT31;66104;45.456;11.064;2023-04-19T16:22:59;19.46;49.27
68746;SHT31;66104;45.456;11.064;2023-04-19T16:25:35;19.29;50.47
68746;SHT31;66104;45.456;11.064;2023-04-19T16:28:12;19.05;50.99
68746;SHT31;66104;45.456;11.064;2023-04-19T16:30:48;18.88;51.30
68746;SHT31;66104;45.456;11.064;2023-04-19T16:33:25;18.72;51.90
68746;SHT31;66104;45.456;11.064;2023-04-19T16:36:01;18.57;52.65
68746;SHT31;66104;45.456;11.064;2023-04-19T16:38:39;18.44;53.42
68746;SHT31;66104;45.456;11.064;2023-04-19T16:41:16;18.37;54.35
68746;SHT31;66104;45.456;11.064;2023-04-19T16:43:53;18.31;55.83
68746;SHT31;66104;45.456;11.064;2023-04-19T16:46:30;18.26;56.75
68746;SHT31;66104;45.456;11.064;2023-04-19T16:49:07;18.19;57.52
68746;SHT31;66104;45.456;11.064;2023-04-19T16:51:45;18.08;58.18
68746;SHT31;66104;45.456;11.064;2023-04-19T16:54:21;17.99;58.44
68746;SHT31;66104;45.456;11.064;2023-04-19T16:56:58;17.95;59.01
68746;SHT31;66104;45.456;11.064;2023-04-19T16:59:35;17.93;58.85
68746;SHT31;66104;45.456;11.064;2023-04-19T17:02:12;17.96;58.83
68746;SHT31;66104;45.456;11.064;2023-04-19T17:04:50;18.02;59.26
68746;SHT31;66104;45.456;11.064;2023-04-19T17:07:29;18.08;59.91
68746;SHT31;66104;45.456;11.064;2023-04-19T17:10:07;18.13;60.49
68746;SHT31;66104;45.456;11.064;2023-04-19T17:12:44;18.19;60.90
68746;SHT31;66104;45.456;11.064;2023-04-19T17:15:23;18.22;60.71
68746;SHT31;66104;45.456;11.064;2023-04-19T17:18:01;18.24;60.34
68746;SHT31;66104;45.456;11.064;2023-04-19T17:20:38;18.24;61.70
68746;SHT31;66104;45.456;11.064;2023-04-19T17:23:15;18.19;62.30
68746;SHT31;66104;45.456;11.064;2023-04-19T17:25:52;18.13;63.02
68746;SHT31;66104;45.456;11.064;2023-04-19T17:28:29;18.06;62.25
68746;SHT31;66104;45.456;11.064;2023-04-19T17:31:06;17.95;62.49
68746;SHT31;66104;45.456;11.064;2023-04-19T17:33:43;17.85;62.77
68746;SHT31;66104;45.456;11.064;2023-04-19T17:36:20;17.77;63.29
68746;SHT31;66104;45.456;11.064;2023-04-19T17:38:58;17.68;63.03
68746;SHT31;66104;45.456;11.064;2023-04-19T17:41:36;17.55;63.16
68746;SHT31;66104;45.456;11.064;2023-04-19T17:44:12;17.34;63.94
68746;SHT31;66104;45.456;11.064;2023-04-19T17:46:48;17.15;65.13
68746;SHT31;66104;45.456;11.064;2023-04-19T17:49:25;17.00;64.66
68746;SHT31;66104;45.456;11.064;2023-04-19T17:52:03;16.85;65.11
68746;SHT31;66104;45.456;11.064;2023-04-19T17:54:40;16.76;65.72
68746;SHT31;66104;45.456;11.064;2023-04-19T17:57:15;16.78;65.72
68746;SHT31;66104;45.456;11.064;2023-04-19T17:59:52;16.85;66.33
68746;SHT31;66104;45.456;11.064;2023-04-19T18:02:28;16.89;66.69
68746;SHT31;66104;45.456;11.064;2023-04-19T18:05:05;16.89;67.10
68746;SHT31;66104;45.456;11.064;2023-04-19T18:07:43;16.84;66.93
68746;SHT31;66104;45.456;11.064;2023-04-19T18:10:19;16.80;65.68
68746;SHT31;66104;45.456;11.064;2023-04-19T18:12:56;16.74;63.98
68746;SHT31;66104;45.456;11.064;2023-04-19T18:15:33;16.73;63.91
68746;SHT31;66104;45.456;11.064;2023-04-19T18:18:10;16.73;63.33
68746;SHT31;66104;45.456;11.064;2023-04-19T18:20:46;16.78;62.81
68746;SHT31;66104;45.456;11.064;2023-04-19T18:23:22;16.85;63.74
68746;SHT31;66104;45.456;11.064;2023-04-19T18:26:01;16.90;64.60
68746;SHT31;66104;45.456;11.064;2023-04-19T18:28:38;16.94;65.69
68746;SHT31;66104;45.456;11.064;2023-04-19T18:31:14;16.97;66.36
68746;SHT31;66104;45.456;11.064;2023-04-19T18:33:51;17.02;67.13
68746;SHT31;66104;45.456;11.064;2023-04-19T18:36:28;17.07;67.81
68746;SHT31;66104;45.456;11.064;2023-04-19T18:39:05;17.10;67.71
68746;SHT31;66104;45.456;11.064;2023-04-19T18:41:42;17.09;66.91
68746;SHT31;66104;45.456;11.064;2023-04-19T18:44:18;17.02;65.99
68746;SHT31;66104;45.456;11.064;2023-04-19T18:47:15;16.96;65.47
68746;SHT31;66104;45.456;11.064;2023-04-19T18:49:52;16.96;65.81
68746;SHT31;66104;45.456;11.064;2023-04-19T18:52:33;17.00;66.15
68746;SHT31;66104;45.456;11.064;2023-04-19T18:55:10;17.01;65.63
68746;SHT31;66104;45.456;11.064;2023-04-19T18:57:47;17.00;65.12
68746;SHT31;66104;45.456;11.064;2023-04-19T19:00:23;17.00;65.37
68746;SHT31;66104;45.456;11.064;2023-04-19T19:03:00;16.95;66.10
68746;SHT31;66104;45.456;11.064;2023-04-19T19:06:00;16.94;66.34
68746;SHT31;66104;45.456;11.064;2023-04-19T19:08:37;16.91;67.03
68746;SHT31;66104;45.456;11.064;2023-04-19T19:11:13;16.89;67.71
68746;SHT31;66104;45.456;11.064;2023-04-19T19:14:10;16.79;67.16
68746;SHT31;66104;45.456;11.064;2023-04-19T19:16:47;16.65;67.55
68746;SHT31;66104;45.456;11.064;2023-04-19T19:19:25;16.56;67.72
68746;SHT31;66104;45.456;11.064;2023-04-19T19:22:02;16.55;67.44
68746;SHT31;66104;45.456;11.064;2023-04-19T19:24:57;16.52;68.78
68746;SHT31;66104;45.456;11.064;2023-04-19T19:27:40;16.50;69.37
68746;SHT31;66104;45.456;11.064;2023-04-19T19:30:25;16.51;69.25
68746;SHT31;66104;45.456;11.064;2023-04-19T19:33:10;16.48;68.29
68746;SHT31;66104;45.456;11.064;2023-04-19T19:35:51;16.45;67.42
68746;SHT31;66104;45.456;11.064;2023-04-19T19:38:33;16.48;67.89
68746;SHT31;66104;45.456;11.064;2023-04-19T19:41:16;16.49;68.26
68746;SHT31;66104;45.456;11.064;2023-04-19T19:44:25;16.46;67.73
68746;SHT31;66104;45.456;11.064;2023-04-19T19:47:05;16.39;67.22
68746;SHT31;66104;45.456;11.064;2023-04-19T19:49:48;16.40;67.67
68746;SHT31;66104;45.456;11.064;2023-04-19T19:52:31;16.39;68.16
68746;SHT31;66104;45.456;11.064;2023-04-19T19:55:16;16.38;66.07
68746;SHT31;66104;45.456;11.064;2023-04-19T19:57:54;16.34;65.77
68746;SHT31;66104;45.456;11.064;2023-04-19T20:00:43;16.35;65.36
68746;SHT31;66104;45.456;11.064;2023-04-19T20:03:27;16.39;65.52
68746;SHT31;66104;45.456;11.064;2023-04-19T20:06:05;16.43;63.68
68746;SHT31;66104;45.456;11.064;2023-04-19T20:09:13;16.48;63.12
68746;SHT31;66104;45.456;11.064;2023-04-19T20:11:59;16.50;63.44
68746;SHT31;66104;45.456;11.064;2023-04-19T20:14:45;16.46;63.36
68746;SHT31;66104;45.456;11.064;2023-04-19T20:17:30;16.46;64.03
68746;SHT31;66104;45.456;11.064;2023-04-19T20:20:17;16.36;66.08
68746;SHT31;66104;45.456;11.064;2023-04-19T20:23:00;16.21;66.85
68746;SHT31;66104;45.456;11.064;2023-04-19T20:25:39;16.18;67.34
68746;SHT31;66104;45.456;11.064;2023-04-19T20:28:20;16.17;67.69
68746;SHT31;66104;45.456;11.064;2023-04-19T20:31:04;16.17;67.71
68746;SHT31;66104;45.456;11.064;2023-04-19T20:33:52;16.16;68.08
68746;SHT31;66104;45.456;11.064;2023-04-19T20:36:29;16.15;67.79
68746;SHT31;66104;45.456;11.064;2023-04-19T20:39:08;16.17;67.49
68746;SHT31;66104;45.456;11.064;2023-04-19T20:41:50;16.19;67.56
68746;SHT31;66104;45.456;11.064;2023-04-19T20:44:33;16.21;67.89
68746;SHT31;66104;45.456;11.064;2023-04-19T20:47:12;16.22;68.02
68746;SHT31;66104;45.456;11.064;2023-04-19T20:49:53;16.24;66.87
68746;SHT31;66104;45.456;11.064;2023-04-19T20:52:34;16.22;66.86
68746;SHT31;66104;45.456;11.064;2023-04-19T20:55:13;16.23;67.21
68746;SHT31;66104;45.456;11.064;2023-04-19T20:57:50;16.20;67.30
68746;SHT31;66104;45.456;11.064;2023-04-19T21:00:27;16.17;67.05
68746;SHT31;66104;45.456;11.064;2023-04-19T21:03:04;16.10;67.15
68746;SHT31;66104;45.456;11.064;2023-04-19T21:05:42;16.06;67.32
68746;SHT31;66104;45.456;11.064;2023-04-19T21:08:19;16.02;67.39
68746;SHT31;66104;45.456;11.064;2023-04-19T21:10:57;15.97;67.44
68746;SHT31;66104;45.456;11.064;2023-04-19T21:13:35;15.94;67.56
68746;SHT31;66104;45.456;11.064;2023-04-19T21:16:11;15.90;68.11
68746;SHT31;66104;45.456;11.064;2023-04-19T21:18:48;15.82;68.39
68746;SHT31;66104;45.456;11.064;2023-04-19T21:21:26;15.81;68.55
68746;SHT31;66104;45.456;11.064;2023-04-19T21:24:02;15.84;68.44
68746;SHT31;66104;45.456;11.064;2023-04-19T21:26:40;15.90;68.15
68746;SHT31;66104;45.456;11.064;2023-04-19T21:29:16;15.92;67.95
68746;SHT31;66104;45.456;11.064;2023-04-19T21:31:55;15.87;67.78
68746;SHT31;66104;45.456;11.064;2023-04-19T21:34:33;15.83;67.77
68746;SHT31;66104;45.456;11.064;2023-04-19T21:37:09;15.80;67.52
68746;SHT31;66104;45.456;11.064;2023-04-19T21:39:49;15.76;67.47
68746;SHT31;66104;45.456;11.064;2023-04-19T21:42:26;15.77;67.46
68746;SHT31;66104;45.456;11.064;2023-04-19T21:45:04;15.75;67.45
68746;SHT31;66104;45.456;11.064;2023-04-19T21:47:45;15.73;67.40
68746;SHT31;66104;45.456;11.064;2023-04-19T21:50:22;15.72;67.35
68746;SHT31;66104;45.456;11.064;2023-04-19T21:52:59;15.70;67.37
68746;SHT31;66104;45.456;11.064;2023-04-19T21:55:36;15.69;67.47
68746;SHT31;66104;45.456;11.064;2023-04-19T21:58:13;15.67;67.54
68746;SHT31;66104;45.456;11.064;2023-04-19T22:00:50;15.67;67.58
68746;SHT31;66104;45.456;11.064;2023-04-19T22:03:26;15.67;67.68
68746;SHT31;66104;45.456;11.064;2023-04-19T22:06:02;15.69;67.57
68746;SHT31;66104;45.456;11.064;2023-04-19T22:08:41;15.68;67.75
68746;SHT31;66104;45.456;11.064;2023-04-19T22:11:18;15.66;67.70
68746;SHT31;66104;45.456;11.064;2023-04-19T22:13:57;15.67;67.87
68746;SHT31;66104;45.456;11.064;2023-04-19T22:16:34;15.69;67.97
68746;SHT31;66104;45.456;11.064;2023-04-19T22:19:11;15.65;68.10
68746;SHT31;66104;45.456;11.064;2023-04-19T22:21:48;15.63;68.26
68746;SHT31;66104;45.456;11.064;2023-04-19T22:24:24;15.65;68.25
68746;SHT31;66104;45.456;11.064;2023-04-19T22:27:09;15.69;68.17
68746;SHT31;66104;45.456;11.064;2023-04-19T22:29:46;15.73;67.98
68746;SHT31;66104;45.456;11.064;2023-04-19T22:32:23;15.76;67.99
68746;SHT31;66104;45.456;11.064;2023-04-19T22:35:00;15.78;68.22
68746;SHT31;66104;45.456;11.064;2023-04-19T22:37:39;15.83;68.61
68746;SHT31;66104;45.456;11.064;2023-04-19T22:40:16;15.81;68.85
68746;SHT31;66104;45.456;11.064;2023-04-19T22:42:53;15.70;68.93
68746;SHT31;66104;45.456;11.064;2023-04-19T22:45:30;15.60;68.96
68746;SHT31;66104;45.456;11.064;2023-04-19T22:48:07;15.52;69.18
68746;SHT31;66104;45.456;11.064;2023-04-19T22:50:45;15.52;69.10
68746;SHT31;66104;45.456;11.064;2023-04-19T22:53:22;15.53;69.18
68746;SHT31;66104;45.456;11.064;2023-04-19T22:56:00;15.56;69.19
68746;SHT31;66104;45.456;11.064;2023-04-19T22:58:40;15.56;69.08
68746;SHT31;66104;45.456;11.064;2023-04-19T23:01:15;15.56;69.47
68746;SHT31;66104;45.456;11.064;2023-04-19T23:03:52;15.54;69.59